createdAt,value
2023-05-17T00:02:01.907Z,72.93
2023-05-17T00:04:29.003Z,73.62
2023-05-17T00:06:55.941Z,72.99
2023-05-17T00:09:22.684Z,73.53
2023-05-17T00:11:49.492Z,73.53
2023-05-17T00:14:16.634Z,73.38
2023-05-17T00:16:43.693Z,73.12
2023-05-17T00:19:10.917Z,72.63
2023-05-17T00:21:38.332Z,72.56
2023-05-17T00:24:05.531Z,73.13
2023-05-17T00:26:34.009Z,72.89
2023-05-17T00:29:00.895Z,73.88
2023-05-17T00:31:27.752Z,73.98
2023-05-17T00:33:54.565Z,73.96
2023-05-17T00:36:21.531Z,72.79
2023-05-17T00:38:48.390Z,73.76
2023-05-17T00:41:15.250Z,74.63
2023-05-17T00:43:42.048Z,74.91
2023-05-17T00:46:08.875Z,75.13
2023-05-17T00:48:36.080Z,75.32
2023-05-17T00:51:03.165Z,75.44
2023-05-17T00:53:30.583Z,75.55
2023-05-17T00:55:57.407Z,75.31
2023-05-17T00:58:24.748Z,75.61
2023-05-17T01:00:51.817Z,76.02
2023-05-17T01:03:18.760Z,76.41
2023-05-17T01:05:45.744Z,77.05
2023-05-17T01:08:12.555Z,77.15
2023-05-17T01:10:48.536Z,76.75
2023-05-17T01:13:33.031Z,77.29
2023-05-17T01:16:25.696Z,77.90
2023-05-17T01:18:59.218Z,77.86
2023-05-17T01:21:44.304Z,78.57
2023-05-17T01:24:26.857Z,78.43
2023-05-17T01:26:55.257Z,79.15
2023-05-17T01:29:26.289Z,79.14
2023-05-17T01:31:53.941Z,79.04
2023-05-17T01:34:27.904Z,78.86
2023-05-17T01:36:54.806Z,79.39
2023-05-17T01:39:21.768Z,79.00
2023-05-17T01:42:00.133Z,79.24
2023-05-17T01:44:35.087Z,78.88
2023-05-17T01:47:12.162Z,79.03
2023-05-17T01:49:41.938Z,79.33
2023-05-17T01:52:19.484Z,79.36
2023-05-17T01:54:48.151Z,79.49
2023-05-17T01:57:16.873Z,79.96
2023-05-17T01:59:45.790Z,80.20
2023-05-17T02:02:14.211Z,80.19
2023-05-17T02:04:41.364Z,80.85
2023-05-17T02:07:08.691Z,80.94
2023-05-17T02:09:35.551Z,80.74
2023-05-17T02:12:02.746Z,81.09
2023-05-17T02:14:29.583Z,81.35
2023-05-17T02:16:57.537Z,81.30
2023-05-17T02:19:24.612Z,82.00
2023-05-17T02:21:51.484Z,81.86
2023-05-17T02:24:18.265Z,81.86
2023-05-17T02:26:46.057Z,82.13
2023-05-17T02:29:12.995Z,82.01
2023-05-17T02:31:39.777Z,82.74
2023-05-17T02:34:06.583Z,82.77
2023-05-17T02:36:33.558Z,83.13
2023-05-17T02:39:00.428Z,82.89
2023-05-17T02:41:27.285Z,83.39
2023-05-17T02:43:54.080Z,83.69
2023-05-17T02:46:21.744Z,83.55
2023-05-17T02:48:48.625Z,83.71
2023-05-17T02:51:15.921Z,84.08
2023-05-17T02:53:42.738Z,84.36
2023-05-17T02:56:09.537Z,84.03
2023-05-17T02:58:36.353Z,83.77
2023-05-17T03:01:03.272Z,83.86
2023-05-17T03:03:31.784Z,84.41
2023-05-17T03:06:02.742Z,84.72
2023-05-17T03:08:29.633Z,84.66
2023-05-17T03:10:56.531Z,84.85
2023-05-17T03:13:23.340Z,85.03
2023-05-17T03:15:50.122Z,85.49
2023-05-17T03:18:17.105Z,85.67
2023-05-17T03:20:44.113Z,86.05
2023-05-17T03:23:11.050Z,86.19
2023-05-17T03:25:37.819Z,85.81
2023-05-17T03:28:04.871Z,86.07
2023-05-17T03:30:31.807Z,86.33
2023-05-17T03:32:58.867Z,86.26
2023-05-17T03:35:25.933Z,86.99
2023-05-17T03:37:52.804Z,87.59
2023-05-17T03:40:19.683Z,87.75
2023-05-17T03:42:46.425Z,87.65
2023-05-17T03:45:13.371Z,87.81
2023-05-17T03:47:40.279Z,87.81
2023-05-17T03:50:07.988Z,88.45
2023-05-17T03:52:34.873Z,88.91
2023-05-17T03:55:01.731Z,88.91
2023-05-17T03:57:28.549Z,88.51
2023-05-17T03:59:55.391Z,88.62
2023-05-17T04:02:22.359Z,88.73
2023-05-17T04:04:50.641Z,88.58
2023-05-17T04:07:17.916Z,88.10
2023-05-17T04:09:45.383Z,88.14
2023-05-17T04:12:12.280Z,87.98
2023-05-17T04:14:39.196Z,87.99
2023-05-17T04:17:06.168Z,87.38
2023-05-17T04:19:34.126Z,87.46
2023-05-17T04:22:00.967Z,87.56
2023-05-17T04:24:27.808Z,87.70
2023-05-17T04:26:54.599Z,87.85
2023-05-17T04:29:21.529Z,87.30
2023-05-17T04:31:49.555Z,87.45
2023-05-17T04:34:16.553Z,87.22
2023-05-17T04:36:43.429Z,86.94
2023-05-17T04:39:10.221Z,87.08
2023-05-17T04:41:38.051Z,87.06
2023-05-17T04:44:06.087Z,86.73
2023-05-17T04:46:32.912Z,86.63
2023-05-17T04:49:00.456Z,86.32
2023-05-17T04:51:27.904Z,86.73
2023-05-17T04:53:55.118Z,86.59
2023-05-17T04:56:22.870Z,86.04
2023-05-17T04:58:50.980Z,85.87
2023-05-17T05:01:19.030Z,86.10
2023-05-17T05:03:46.296Z,85.87
2023-05-17T05:06:13.222Z,85.65
2023-05-17T05:08:40.057Z,84.69
2023-05-17T05:11:06.969Z,84.57
2023-05-17T05:13:33.856Z,84.37
2023-05-17T05:16:00.821Z,83.78
2023-05-17T05:18:27.776Z,83.54
2023-05-17T05:20:54.777Z,83.18
2023-05-17T05:23:21.654Z,83.90
2023-05-17T05:25:48.480Z,83.34
2023-05-17T05:28:15.234Z,83.06
2023-05-17T05:30:42.163Z,83.22
2023-05-17T05:33:09.198Z,82.19
2023-05-17T05:35:36.071Z,82.35
2023-05-17T05:38:03.368Z,80.68
2023-05-17T05:40:30.295Z,78.86
2023-05-17T05:42:57.332Z,77.92
2023-05-17T05:45:24.143Z,77.68
2023-05-17T05:47:51.110Z,76.38
2023-05-17T05:50:18.026Z,75.60
2023-05-17T05:52:47.729Z,74.97
2023-05-17T05:55:14.636Z,74.99
2023-05-17T05:57:41.550Z,74.32
2023-05-17T06:00:09.313Z,73.82
2023-05-17T06:02:36.545Z,73.59
2023-05-17T06:05:04.123Z,72.70
2023-05-17T06:07:31.012Z,71.80
2023-05-17T06:09:58.055Z,70.51
2023-05-17T06:12:24.949Z,69.79
2023-05-17T06:14:51.793Z,69.21
2023-05-17T06:17:18.695Z,68.89
2023-05-17T06:19:45.617Z,68.14
2023-05-17T06:22:12.432Z,66.59
2023-05-17T06:24:39.177Z,67.09
2023-05-17T06:27:07.423Z,66.23
2023-05-17T06:29:34.684Z,66.52
2023-05-17T06:32:01.426Z,64.77
2023-05-17T06:34:28.627Z,64.02
2023-05-17T06:36:55.532Z,62.18
2023-05-17T06:39:22.364Z,62.90
2023-05-17T06:41:49.169Z,62.64
2023-05-17T06:44:16.234Z,62.40
2023-05-17T06:46:42.991Z,61.62
2023-05-17T06:49:09.837Z,62.02
2023-05-17T06:51:36.698Z,61.00
2023-05-17T06:54:03.654Z,61.70
2023-05-17T06:56:30.508Z,60.34
2023-05-17T06:58:57.354Z,60.78
2023-05-17T07:01:24.888Z,60.07
2023-05-17T07:03:51.798Z,58.79
2023-05-17T07:06:18.764Z,59.61
2023-05-17T07:08:46.422Z,59.39
2023-05-17T07:11:13.260Z,59.18
2023-05-17T07:13:40.174Z,59.31
2023-05-17T07:16:10.908Z,58.78
2023-05-17T07:18:40.507Z,57.82
2023-05-17T07:21:07.497Z,58.20
2023-05-17T07:23:34.359Z,57.50
2023-05-17T07:26:01.142Z,56.20
2023-05-17T07:28:27.942Z,55.45
2023-05-17T07:30:54.950Z,54.49
2023-05-17T07:33:21.741Z,51.73
2023-05-17T07:35:48.736Z,52.51
2023-05-17T07:38:15.563Z,53.96
2023-05-17T07:40:42.319Z,55.77
2023-05-17T07:43:09.144Z,54.36
2023-05-17T07:45:35.934Z,54.03
2023-05-17T07:48:02.839Z,55.13
2023-05-17T07:50:29.848Z,57.42
2023-05-17T07:52:59.029Z,54.84
2023-05-17T07:55:25.828Z,56.48
2023-05-17T07:57:52.895Z,56.60
2023-05-17T08:00:20.244Z,56.98
2023-05-17T08:02:47.052Z,57.63
2023-05-17T08:05:14.115Z,57.44
2023-05-17T08:07:41.035Z,58.70
2023-05-17T08:10:08.454Z,57.25
2023-05-17T08:12:35.492Z,55.52
2023-05-17T08:15:02.671Z,57.00
2023-05-17T08:17:29.558Z,56.91
2023-05-17T08:19:56.542Z,56.70
2023-05-17T08:22:23.388Z,57.42
2023-05-17T08:24:50.209Z,58.01
2023-05-17T08:27:17.246Z,57.66
2023-05-17T08:29:44.166Z,59.19
2023-05-17T08:32:11.157Z,56.92
2023-05-17T08:34:38.231Z,58.63
2023-05-17T08:37:05.273Z,56.58
2023-05-17T08:39:32.863Z,57.61
2023-05-17T08:42:01.972Z,57.45
2023-05-17T08:44:28.865Z,57.91
2023-05-17T08:46:56.929Z,56.78
2023-05-17T08:49:26.081Z,58.49
2023-05-17T08:51:55.615Z,58.67
2023-05-17T08:54:22.994Z,58.59
2023-05-17T08:56:54.142Z,59.05
2023-05-17T08:59:22.134Z,57.83
2023-05-17T09:01:50.059Z,59.03
2023-05-17T09:04:17.739Z,58.41
2023-05-17T09:06:45.031Z,57.40
2023-05-17T09:09:11.990Z,57.81
2023-05-17T09:11:39.169Z,56.41
2023-05-17T09:14:07.596Z,56.94
2023-05-17T09:16:36.514Z,56.18
2023-05-17T09:19:05.824Z,57.67
2023-05-17T09:21:33.312Z,58.20
2023-05-17T09:26:42.664Z,55.85
2023-05-17T09:29:11.034Z,57.33
2023-05-17T09:31:38.391Z,58.03
2023-05-17T09:34:07.415Z,56.16
2023-05-17T09:36:37.002Z,56.31
2023-05-17T09:39:06.334Z,56.36
2023-05-17T09:41:42.375Z,55.43
2023-05-17T09:44:10.625Z,56.18
2023-05-17T09:46:41.997Z,55.24
2023-05-17T09:49:09.651Z,55.03
2023-05-17T09:51:39.264Z,55.88
2023-05-17T09:54:10.665Z,55.16
2023-05-17T09:56:37.778Z,55.02
2023-05-17T09:59:11.156Z,55.22
2023-05-17T10:01:44.062Z,53.64
2023-05-17T10:04:12.173Z,54.70
2023-05-17T10:09:14.226Z,53.72
2023-05-17T10:11:44.689Z,53.52
2023-05-17T10:14:18.732Z,54.01
2023-05-17T10:16:45.979Z,54.08
2023-05-17T10:19:14.484Z,51.66
2023-05-17T10:21:43.117Z,51.12
2023-05-17T10:24:11.594Z,50.05
2023-05-17T10:26:39.037Z,49.16
2023-05-17T10:29:06.436Z,50.37
2023-05-17T10:31:34.670Z,50.25
2023-05-17T10:34:03.461Z,51.55
2023-05-17T10:36:31.442Z,50.78
2023-05-17T10:38:59.635Z,52.27
2023-05-17T10:41:33.311Z,51.03
2023-05-17T10:44:03.629Z,51.42
2023-05-17T10:46:31.115Z,51.14
2023-05-17T10:49:01.968Z,51.87
2023-05-17T10:51:36.962Z,52.17
2023-05-17T10:54:18.559Z,51.98
2023-05-17T10:56:52.965Z,50.89
2023-05-17T10:59:29.828Z,51.56
2023-05-17T11:02:07.164Z,52.83
2023-05-17T11:04:41.209Z,53.59
2023-05-17T11:07:22.386Z,54.25
2023-05-17T11:09:50.284Z,54.51
2023-05-17T11:12:30.704Z,52.96
2023-05-17T11:14:58.749Z,52.62
2023-05-17T11:17:28.129Z,52.63
2023-05-17T11:19:55.217Z,51.82
2023-05-17T11:22:34.297Z,50.37
2023-05-17T11:25:05.926Z,48.68
2023-05-17T11:27:38.011Z,50.07
2023-05-17T11:30:29.201Z,50.30
2023-05-17T11:33:00.891Z,50.08
2023-05-17T11:35:38.610Z,47.20
2023-05-17T11:38:22.437Z,46.51
2023-05-17T11:40:50.963Z,46.33
2023-05-17T11:43:20.259Z,46.25
2023-05-17T11:45:53.285Z,43.85
2023-05-17T11:48:22.933Z,43.94
2023-05-17T11:50:51.712Z,43.92
2023-05-17T11:53:19.159Z,45.65
2023-05-17T11:55:51.077Z,44.72
2023-05-17T11:58:36.313Z,44.98
2023-05-17T12:01:04.483Z,44.25
2023-05-17T12:03:33.402Z,44.02
2023-05-17T12:06:13.490Z,44.97
2023-05-17T12:08:45.294Z,43.90
2023-05-17T12:11:15.002Z,43.43
2023-05-17T12:13:47.107Z,43.37
2023-05-17T12:16:17.900Z,43.64
2023-05-17T12:18:49.156Z,39.74
2023-05-17T12:21:18.442Z,38.01
2023-05-17T12:23:48.871Z,39.21
2023-05-17T12:26:24.593Z,38.65
2023-05-17T12:28:59.071Z,37.76
2023-05-17T12:31:38.601Z,39.53
2023-05-17T12:34:07.345Z,38.70
2023-05-17T12:36:34.487Z,37.73
2023-05-17T12:39:02.527Z,37.51
2023-05-17T12:41:30.916Z,35.48
2023-05-17T12:44:13.605Z,36.87
2023-05-17T12:46:42.099Z,38.10
2023-05-17T12:49:09.794Z,38.01
2023-05-17T12:51:44.304Z,38.00
2023-05-17T12:54:24.501Z,37.74
2023-05-17T12:56:51.808Z,37.57
2023-05-17T12:59:19.444Z,36.49
2023-05-17T13:01:48.754Z,36.33
2023-05-17T13:04:17.611Z,39.13
2023-05-17T13:06:49.781Z,38.27
2023-05-17T13:09:22.201Z,34.68
2023-05-17T13:11:53.943Z,32.04
2023-05-17T13:14:38.028Z,31.73
2023-05-17T13:17:07.230Z,31.08
2023-05-17T13:19:36.211Z,33.37
2023-05-17T13:22:04.252Z,31.50
2023-05-17T13:24:35.995Z,30.49
2023-05-17T13:27:03.666Z,29.40
2023-05-17T13:29:38.683Z,33.74
2023-05-17T13:32:08.474Z,32.05
2023-05-17T13:34:35.856Z,31.07
2023-05-17T13:37:02.672Z,33.16
2023-05-17T13:39:29.481Z,31.90
2023-05-17T13:41:56.336Z,33.15
2023-05-17T13:44:23.285Z,35.27
2023-05-17T13:46:50.109Z,34.30
2023-05-17T13:49:17.560Z,34.58
2023-05-17T13:51:45.283Z,35.09
2023-05-17T13:54:12.195Z,37.14
2023-05-17T13:56:39.068Z,36.31
2023-05-17T13:59:05.968Z,35.64
2023-05-17T14:01:32.834Z,32.69
2023-05-17T14:04:01.070Z,31.69
2023-05-17T14:06:28.580Z,33.04
2023-05-17T14:08:57.337Z,33.53
2023-05-17T14:11:24.146Z,31.90
2023-05-17T14:13:51.296Z,28.86
2023-05-17T14:16:18.093Z,29.48
2023-05-17T14:18:46.191Z,29.76
2023-05-17T14:21:13.252Z,28.62
2023-05-17T14:23:40.015Z,28.90
2023-05-17T14:26:09.712Z,30.96
2023-05-17T14:28:38.450Z,29.44
2023-05-17T14:31:07.186Z,29.50
2023-05-17T14:33:34.342Z,28.11
2023-05-17T14:36:01.438Z,28.43
2023-05-17T14:38:28.401Z,28.66
2023-05-17T14:40:55.317Z,30.61
2023-05-17T14:43:22.674Z,32.21
2023-05-17T14:45:49.437Z,34.24
2023-05-17T14:48:16.814Z,34.15
2023-05-17T14:50:43.830Z,33.80
2023-05-17T14:53:10.622Z,34.15
2023-05-17T14:55:37.432Z,33.50
2023-05-17T14:58:04.295Z,31.82
2023-05-17T15:00:31.083Z,29.76
2023-05-17T15:02:58.393Z,31.10
2023-05-17T15:05:25.958Z,29.83
2023-05-17T15:07:52.870Z,31.43
2023-05-17T15:10:19.858Z,31.12
2023-05-17T15:12:47.585Z,31.50
2023-05-17T15:15:14.565Z,31.48
2023-05-17T15:17:41.850Z,32.66
2023-05-17T15:20:09.425Z,32.45
2023-05-17T15:22:36.904Z,35.56
2023-05-17T15:25:05.034Z,34.13
2023-05-17T15:27:31.918Z,34.01
2023-05-17T15:29:58.825Z,33.88
2023-05-17T15:32:25.915Z,35.66
2023-05-17T15:34:52.877Z,33.63
2023-05-17T15:37:19.845Z,32.04
2023-05-17T15:39:46.906Z,29.64
2023-05-17T15:42:13.705Z,31.03
2023-05-17T15:44:40.479Z,28.68
2023-05-17T15:47:07.396Z,28.88
2023-05-17T15:49:34.396Z,30.09
2023-05-17T15:52:01.610Z,29.37
2023-05-17T15:54:28.617Z,31.05
2023-05-17T15:56:55.444Z,31.20
2023-05-17T15:59:22.435Z,29.81
2023-05-17T16:01:49.719Z,30.71
2023-05-17T16:04:19.493Z,30.29
2023-05-17T16:06:53.318Z,29.76
2023-05-17T16:09:20.269Z,28.77
2023-05-17T16:11:47.236Z,32.17
2023-05-17T16:14:14.100Z,33.18
2023-05-17T16:16:41.858Z,31.58
2023-05-17T16:19:09.154Z,31.30
2023-05-17T16:21:36.149Z,30.63
2023-05-17T16:24:04.463Z,30.74
2023-05-17T16:26:31.238Z,31.86
2023-05-17T16:28:58.999Z,30.66
2023-05-17T16:31:26.028Z,32.80
2023-05-17T16:33:53.157Z,34.44
2023-05-17T16:36:22.714Z,31.95
2023-05-17T16:38:50.394Z,34.17
2023-05-17T16:41:17.325Z,35.83
2023-05-17T16:43:44.246Z,32.50
2023-05-17T16:46:11.024Z,32.93
2023-05-17T16:48:37.821Z,34.50
2023-05-17T16:51:04.949Z,35.25
2023-05-17T16:53:31.826Z,35.45
2023-05-17T16:55:58.620Z,36.43
2023-05-17T16:58:26.275Z,36.78
2023-05-17T17:00:53.292Z,36.58
2023-05-17T17:03:20.144Z,37.05
2023-05-17T17:05:47.045Z,36.83
2023-05-17T17:08:13.850Z,36.96
2023-05-17T17:10:40.684Z,36.04
2023-05-17T17:13:07.524Z,37.15
2023-05-17T17:15:34.516Z,37.29
2023-05-17T17:18:01.424Z,37.64
2023-05-17T17:20:28.716Z,37.90
2023-05-17T17:22:56.254Z,38.19
2023-05-17T17:25:24.922Z,38.19
2023-05-17T17:27:53.237Z,38.80
2023-05-17T17:30:20.430Z,38.65
2023-05-17T17:32:47.568Z,39.03
2023-05-17T17:35:14.524Z,39.11
2023-05-17T17:37:41.420Z,39.00
2023-05-17T17:40:09.032Z,39.89
2023-05-17T17:42:36.023Z,40.24
2023-05-17T17:45:02.844Z,40.20
2023-05-17T17:47:29.628Z,38.43
2023-05-17T17:49:56.610Z,40.30
2023-05-17T17:52:24.008Z,40.65
2023-05-17T17:54:51.174Z,41.04
2023-05-17T17:57:19.645Z,41.17
2023-05-17T17:59:46.451Z,41.26
2023-05-17T18:02:13.360Z,41.61
2023-05-17T18:04:41.158Z,41.80
2023-05-17T18:07:08.955Z,42.24
2023-05-17T18:09:35.878Z,42.92
2023-05-17T18:12:02.732Z,43.19
2023-05-17T18:14:29.525Z,43.52
2023-05-17T18:16:56.440Z,43.47
2023-05-17T18:19:23.556Z,43.84
2023-05-17T18:21:50.966Z,44.29
2023-05-17T18:24:17.880Z,44.16
2023-05-17T18:26:45.050Z,44.03
2023-05-17T18:29:11.915Z,44.13
2023-05-17T18:31:38.906Z,44.16
2023-05-17T18:34:05.723Z,44.41
2023-05-17T18:36:32.669Z,44.66
2023-05-17T18:39:01.094Z,44.67
2023-05-17T18:41:31.029Z,44.79
2023-05-17T18:44:02.161Z,44.63
2023-05-17T18:46:29.981Z,45.15
2023-05-17T18:48:56.939Z,44.88
2023-05-17T18:51:23.776Z,45.24
2023-05-17T18:53:50.645Z,45.38
2023-05-17T18:56:22.998Z,45.69
2023-05-17T18:58:55.736Z,46.09
2023-05-17T19:01:22.689Z,46.40
2023-05-17T19:03:59.363Z,46.73
2023-05-17T19:06:29.475Z,46.72
2023-05-17T19:08:58.415Z,46.93
2023-05-17T19:11:26.450Z,46.60
2023-05-17T19:13:53.231Z,46.50
2023-05-17T19:16:20.172Z,46.12
2023-05-17T19:18:47.060Z,46.10
2023-05-17T19:21:13.902Z,46.00
2023-05-17T19:23:41.117Z,46.37
2023-05-17T19:26:07.900Z,46.59
2023-05-17T19:28:36.113Z,47.03
2023-05-17T19:31:04.078Z,46.99
2023-05-17T19:33:32.264Z,47.02
2023-05-17T19:35:59.083Z,47.01
2023-05-17T19:38:25.854Z,47.00
2023-05-17T19:40:52.835Z,47.86
2023-05-17T19:43:19.759Z,47.58
2023-05-17T19:45:46.575Z,47.70
2023-05-17T19:48:13.593Z,47.95
2023-05-17T19:50:40.495Z,48.59
2023-05-17T19:53:07.265Z,48.87
2023-05-17T19:55:34.714Z,49.21
2023-05-17T19:58:01.552Z,49.38
2023-05-17T20:00:30.128Z,49.55
2023-05-17T20:02:57.556Z,49.54
2023-05-17T20:05:25.679Z,49.61
2023-05-17T20:07:52.513Z,50.00
2023-05-17T20:10:19.351Z,50.15
2023-05-17T20:12:46.992Z,50.33
2023-05-17T20:15:13.949Z,50.65
2023-05-17T20:17:40.823Z,50.95
2023-05-17T20:20:08.387Z,51.16
2023-05-17T20:22:43.927Z,51.62
2023-05-17T20:25:11.618Z,51.88
2023-05-17T20:27:38.922Z,52.20
2023-05-17T20:30:07.621Z,52.43
2023-05-17T20:32:34.558Z,52.21
2023-05-17T20:35:01.696Z,52.56
2023-05-17T20:37:28.778Z,52.73
2023-05-17T20:39:59.630Z,52.87
2023-05-17T20:42:28.507Z,52.70
2023-05-17T20:44:55.801Z,53.24
2023-05-17T20:47:23.077Z,52.53
2023-05-17T20:49:50.582Z,52.70
2023-05-17T20:52:31.376Z,52.31
2023-05-17T20:55:06.313Z,52.57
2023-05-17T20:57:33.127Z,52.67
2023-05-17T20:59:59.984Z,52.65
2023-05-17T21:02:27.032Z,52.55
2023-05-17T21:04:54.902Z,52.91
2023-05-17T21:07:26.685Z,52.85
2023-05-17T21:09:53.506Z,52.77
2023-05-17T21:12:21.900Z,52.72
2023-05-17T21:15:00.525Z,52.69
2023-05-17T21:17:35.263Z,52.72
2023-05-17T21:20:02.251Z,52.67
2023-05-17T21:22:29.131Z,52.74
2023-05-17T21:24:55.911Z,52.80
2023-05-17T21:27:22.725Z,53.58
2023-05-17T21:29:49.464Z,53.39
2023-05-17T21:32:17.369Z,53.54
2023-05-17T21:34:45.195Z,53.96
2023-05-17T21:37:12.213Z,53.79
2023-05-17T21:39:39.058Z,54.09
2023-05-17T21:42:06.222Z,54.32
2023-05-17T21:44:33.000Z,54.50
2023-05-17T21:47:00.286Z,54.87
2023-05-17T21:49:28.846Z,54.97
2023-05-17T21:51:55.702Z,55.58
2023-05-17T21:54:24.669Z,55.69
2023-05-17T21:56:51.782Z,55.97
2023-05-17T21:59:19.017Z,56.34
2023-05-17T22:01:46.114Z,56.58
2023-05-17T22:04:13.059Z,57.22
2023-05-17T22:06:39.889Z,57.19
2023-05-17T22:09:07.347Z,57.06
2023-05-17T22:11:38.489Z,57.40
2023-05-17T22:14:08.429Z,57.13
2023-05-17T22:16:36.229Z,57.63
2023-05-17T22:19:04.113Z,57.78
2023-05-17T22:21:31.863Z,58.03
2023-05-17T22:23:59.353Z,57.80
2023-05-17T22:26:28.003Z,58.04
2023-05-17T22:28:55.918Z,58.45
2023-05-17T22:31:23.155Z,58.78
2023-05-17T22:33:50.649Z,59.10
2023-05-17T22:36:19.297Z,59.11
2023-05-17T22:38:46.591Z,59.57
2023-05-17T22:41:13.964Z,60.09
2023-05-17T22:43:40.851Z,60.38
2023-05-17T22:46:08.020Z,60.82
2023-05-17T22:48:37.586Z,60.88
2023-05-17T22:51:04.621Z,61.47
2023-05-17T22:53:31.888Z,61.89
2023-05-17T22:55:58.975Z,62.02
2023-05-17T22:58:26.054Z,62.94
2023-05-17T23:00:53.173Z,63.21
2023-05-17T23:03:20.669Z,63.42
2023-05-17T23:05:47.637Z,63.19
2023-05-17T23:08:17.699Z,64.23
2023-05-17T23:10:45.071Z,64.32
2023-05-17T23:13:15.630Z,65.26
2023-05-17T23:15:47.179Z,65.01
2023-05-17T23:18:14.122Z,64.63
2023-05-17T23:20:42.329Z,65.07
2023-05-17T23:23:09.238Z,64.86
2023-05-17T23:25:37.523Z,65.74
2023-05-17T23:28:04.903Z,66.09
2023-05-17T23:30:32.454Z,64.81
2023-05-17T23:33:00.377Z,65.46
2023-05-17T23:35:27.388Z,65.22
2023-05-17T23:37:54.376Z,65.27
2023-05-17T23:40:21.359Z,65.84
2023-05-17T23:42:48.213Z,65.12
2023-05-17T23:45:15.100Z,64.89
2023-05-17T23:47:41.920Z,65.55
2023-05-17T23:50:12.261Z,65.94
2023-05-17T23:52:39.482Z,66.62
2023-05-17T23:55:07.604Z,66.96
2023-05-17T23:57:35.473Z,67.91
